Etusivu
METAR-TAF:

METAR-TAF

Lentoasemat :

Kristianstad, Ruotsi

Leveyspiiri: 55-55N, Pituuspiiri: 014-05E, korkeus merenpinnasta: 23 m

Tämänhetkinen sää

Tämä raportti tehtiin 36 minuuttia sitten, kello 22.20 UTC
Tuuli 10 kn lounaasta
Lämpötila 5°C
Kosteus 100%
Ilmanpaine 1015 hPa
Näkyvyys 10 km tai enemmän

METAR: ESMK 172220Z AUTO 22010KT 9999 NCD 05/05 Q1015

Aika: 23:56 (22:56 UTC)

Sääennuste

Tämä raportti tehtiin 9 tuntia ja 8 minuuttia sitten, kello 13.48 UTC
Ennuste voimassa 17. päivästä klo 15 UTC - 17. päivään klo 19 UTC
Tuuli 10 kn lännestä
Näkyvyys 10 km tai enemmän
Muutamia pilviä 3000 ft:n korkeudessa

TAF: ESMK 171348Z 1715/1719 26010KT 9999 FEW030

Säähavainnot ja -ennusteet yli 4000 lentoasemalta (METAR- ja TAF-raportit).

Käytössä olevat sääasemat on merkitty karttaan keltaisilla ja punaisilla pisteillä.

Aseta hiiri pisteen päälle nähdäksesi sääaseman nimen.

Klikkaa sitten nähdäksesi säähavainnot ja -ennusteet.

Kartan vaihtaminen: klikkaa mustalla rastilla varustettuja vihreitä pisteitä, niin voit zoomata sisään; viivalla varustettua vihreää pistettä, niin voit zoomata ulos tai vihreitä nuolia, niin pääset viereisille kartoille.


METAR-TAF: